Alderson, West Virginia
Current Conditions -  °F | °C
As of 4:35 PM on Friday 19 Dec 2014 (Local Time) from KLWB Reporting Station
Clear Clear  
Wind Chill: 28°   Ceiling: Unl
Heat Index: 32°   Visibility: 10mi
Dew Point: 22°   Wind: 5mph
Humidity: 67%   Direction: 270°W
Pressure: 30.12"   Gusts: NA
Location:  37.73°N, 80.64°W
Report Text: KLWB 192135Z AUTO 27004KT 10SM CLR 00/M05 A3012 RMK AO2 T00021053
Loading
Personal Weather Stations






























Interactive Weather Map New forecast layout! Learn more

10-Day Weather Forecast

Advertisements
Track Severe Weather on mobile